Robertville, South Carolina
Current Conditions -  °F | °C
As of 6:55 PM on Monday 22 Dec 2014 (Local Time) from KJYL Reporting Station
Haze Haze  
Wind Chill: 43°   Ceiling: 300
Heat Index: 47°   Visibility: 3mi
Dew Point: 47°   Wind: 7mph
Humidity: 100%   Direction: 100°E
Pressure: 29.96"   Gusts: NA
Location:  32.6001°N, 81.2393°W
Report Text: KJYL 222355Z AUTO 10006KT 3SM BR OVC003 08/08 A2996 RMK AO2 LTG DSNT S T00810081 10086 20078
Loading
Personal Weather Stations






























Interactive Weather Map New forecast layout! Learn more

10-Day Weather Forecast

Advertisements
Track Severe Weather on mobile